Time;durP1;ratioP1;P1;durP2;ratioP2;P2;SDS_P1;SDS_P2;PMS_P1;PMS_P2;Temp;Humidity;BMP_temperature;BMP_pressure;BME280_temperature;BME280_humidity;BME280_pressure;Samples;Min_cycle;Max_cycle;Signal;HPM_P1;HPM_P2
2023/08/16 00:01:05;;;;;;;5.78;2.78;;;23.90;88.30;;;;;;7383886;19;20003;-75
2023/08/16 00:03:34;;;;;;;6.78;2.95;;;23.90;88.30;;;;;;7383876;19;20003;-77
2023/08/16 00:06:14;;;;;;;9.85;3.20;;;23.90;89.10;;;;;;7385059;19;20020;-76
2023/08/16 00:08:43;;;;;;;18.48;3.15;;;23.90;88.30;;;;;;7385028;19;20014;-77
2023/08/16 00:11:12;;;;;;;6.40;2.90;;;24.00;88.20;;;;;;7384466;19;20425;-77
2023/08/16 00:13:41;;;;;;;6.28;2.90;;;24.00;87.80;;;;;;7405632;19;20013;-77
2023/08/16 00:16:09;;;;;;;9.15;3.08;;;24.00;87.70;;;;;;7384108;19;20020;-76
2023/08/16 00:21:22;;;;;;;6.95;2.85;;;24.00;87.40;;;;;;7378482;19;20463;-76
2023/08/16 00:23:50;;;;;;;;;;;24.00;87.50;;;;;;7382440;19;20020;-76
2023/08/16 00:26:19;;;;;;;11.65;2.97;;;24.10;87.50;;;;;;7382049;19;20005;-76
2023/08/16 00:28:48;;;;;;;14.50;2.95;;;24.10;87.30;;;;;;7381501;19;20007;-75
2023/08/16 00:31:17;;;;;;;10.30;3.10;;;24.10;86.80;;;;;;7404471;19;20015;-77
2023/08/16 00:33:46;;;;;;;7.05;2.60;;;24.10;86.50;;;;;;7381070;19;20007;-76
2023/08/16 00:36:14;;;;;;;5.78;2.38;;;24.10;86.20;;;;;;7381777;19;20003;-77
2023/08/16 00:38:45;;;;;;;5.47;2.50;;;24.10;86.00;;;;;;7381853;19;20010;-77
2023/08/16 00:41:14;;;;;;;;;;;24.10;85.80;;;;;;7382181;19;20013;-77
2023/08/16 00:43:43;;;;;;;11.18;2.40;;;24.10;85.80;;;;;;7380986;19;19950;-75
2023/08/16 00:46:15;;;;;;;5.57;2.50;;;24.10;85.70;;;;;;7402192;19;20541;-76
2023/08/16 00:48:46;;;;;;;14.45;2.60;;;24.10;85.80;;;;;;7380940;19;20394;-77
2023/08/16 00:51:16;;;;;;;9.07;2.75;;;24.10;85.50;;;;;;7381053;19;20062;-76
2023/08/16 00:53:48;;;;;;;7.38;2.17;;;24.10;85.50;;;;;;7381535;19;20010;-76
2023/08/16 00:56:18;;;;;;;12.45;2.78;;;24.10;85.30;;;;;;7383730;19;20011;-76
2023/08/16 00:58:49;;;;;;;6.32;2.22;;;24.10;85.30;;;;;;7384329;19;20024;-76
2023/08/16 01:01:18;;;;;;;7.43;2.33;;;24.10;85.80;;;;;;7409243;19;20006;-76
2023/08/16 01:03:47;;;;;;;4.13;2.42;;;24.00;86.50;;;;;;7381825;19;20011;-76
2023/08/16 01:06:16;;;;;;;6.80;2.17;;;24.00;86.30;;;;;;7382006;19;20015;-75
2023/08/16 01:08:47;;;;;;;8.48;2.38;;;24.00;86.50;;;;;;7382677;19;20002;-75
2023/08/16 01:11:19;;;;;;;;;;;24.00;86.20;;;;;;7383536;19;20097;-75
2023/08/16 01:13:57;;;;;;;7.75;2.45;;;24.00;85.50;;;;;;7381800;19;19915;-76
2023/08/16 01:16:28;;;;;;;16.13;2.53;;;23.90;85.80;;;;;;7401117;19;20010;-76
2023/08/16 01:18:58;;;;;;;;;;;23.90;85.90;;;;;;7382083;19;20295;-76
2023/08/16 01:21:28;;;;;;;5.97;2.30;;;23.90;86.10;;;;;;7382005;19;19910;-76
2023/08/16 01:24:10;;;;;;;11.65;2.60;;;23.90;86.10;;;;;;7382430;19;20003;-76
2023/08/16 01:26:44;;;;;;;9.20;2.67;;;23.80;86.20;;;;;;7381723;19;20067;-76
2023/08/16 01:29:13;;;;;;;7.15;2.38;;;23.90;86.50;;;;;;7382400;19;20023;-76
2023/08/16 01:31:42;;;;;;;12.65;2.88;;;23.90;86.50;;;;;;7391003;19;20002;-76
2023/08/16 01:34:11;;;;;;;7.40;2.47;;;23.90;87.00;;;;;;7403259;19;20062;-76
2023/08/16 01:36:40;;;;;;;9.10;2.75;;;23.90;87.20;;;;;;7381151;19;20373;-77
2023/08/16 01:39:08;;;;;;;6.63;2.47;;;24.00;87.20;;;;;;7381620;19;20086;-77
2023/08/16 01:41:45;;;;;;;6.00;2.22;;;24.00;86.30;;;;;;7381584;19;20410;-76
2023/08/16 01:44:15;;;;;;;5.18;2.00;;;24.00;86.40;;;;;;7381911;19;20010;-76
2023/08/16 01:46:45;;;;;;;7.78;2.28;;;24.00;86.20;;;;;;7381367;19;20010;-76
2023/08/16 01:49:15;;;;;;;12.27;2.58;;;24.00;85.60;;;;;;7403019;19;20067;-77
2023/08/16 01:51:44;;;;;;;8.35;2.20;;;24.00;85.80;;;;;;7380640;19;20107;-77
2023/08/16 01:54:13;;;;;;;3.85;2.55;;;24.00;85.90;;;;;;7380890;19;20023;-77
2023/08/16 01:56:45;;;;;;;8.13;2.30;;;24.00;86.20;;;;;;7380795;19;20075;-77
2023/08/16 01:59:13;;;;;;;;;;;23.90;86.20;;;;;;7381689;19;20010;-76
2023/08/16 02:01:42;;;;;;;11.57;2.42;;;24.00;86.10;;;;;;7391927;19;19910;-77
2023/08/16 02:04:10;;;;;;;5.35;2.00;;;23.90;85.20;;;;;;7401316;19;20015;-75
2023/08/16 02:06:39;;;;;;;21.33;10.00;;;24.00;85.20;;;;;;7377861;19;20009;-75
2023/08/16 02:09:08;;;;;;;22.35;11.50;;;24.00;85.30;;;;;;7381008;19;20108;-76
2023/08/16 02:11:37;;;;;;;5.80;2.85;;;23.90;85.30;;;;;;7381150;19;20287;-76
2023/08/16 02:14:08;;;;;;;5.05;2.17;;;23.90;84.70;;;;;;7380855;19;20006;-75
2023/08/16 02:16:36;;;;;;;;;;;23.90;84.90;;;;;;7403632;19;20027;-76
2023/08/16 02:19:05;;;;;;;12.38;2.40;;;23.90;84.80;;;;;;7379911;19;19911;-75
2023/08/16 02:21:34;;;;;;;7.20;2.10;;;23.90;84.70;;;;;;7379843;19;20062;-76
2023/08/16 02:24:03;;;;;;;9.60;2.30;;;23.90;84.70;;;;;;7380491;19;20007;-76
2023/08/16 02:26:31;;;;;;;5.50;2.25;;;23.90;84.70;;;;;;7380477;19;20018;-76
2023/08/16 02:29:00;;;;;;;4.63;2.10;;;23.90;84.60;;;;;;7380705;19;20059;-77
2023/08/16 02:31:31;;;;;;;4.63;2.35;;;23.90;84.60;;;;;;7405251;19;20014;-76
2023/08/16 02:34:00;;;;;;;;;;;23.90;84.70;;;;;;7380280;19;20390;-76
2023/08/16 02:36:28;;;;;;;8.73;2.40;;;23.90;84.10;;;;;;7380314;19;19920;-76
2023/08/16 02:38:57;;;;;;;5.18;1.92;;;23.90;84.00;;;;;;7380110;19;20104;-76
2023/08/16 02:41:26;;;;;;;9.93;2.10;;;23.90;84.10;;;;;;7380122;19;20086;-76
2023/08/16 02:43:54;;;;;;;3.63;1.77;;;23.90;83.80;;;;;;7379616;19;20409;-77
2023/08/16 02:46:23;;;;;;;10.57;2.10;;;23.90;83.80;;;;;;7400643;19;20020;-74
2023/08/16 02:48:54;;;;;;;5.95;2.00;;;23.80;83.70;;;;;;7376919;19;20016;-76
2023/08/16 02:51:23;;;;;;;;;;;23.80;83.80;;;;;;7379536;19;20097;-76
2023/08/16 02:53:51;;;;;;;8.63;2.03;;;23.80;83.30;;;;;;7379342;19;19959;-76
2023/08/16 02:56:20;;;;;;;8.00;2.42;;;23.70;83.40;;;;;;7379696;19;20074;-76
2023/08/16 02:58:49;;;;;;;9.15;2.38;;;23.70;83.70;;;;;;7379127;19;20014;-76
2023/08/16 03:01:17;;;;;;;7.68;2.30;;;23.70;83.80;;;;;;7400305;19;20423;-76
2023/08/16 03:03:47;;;;;;;6.28;2.15;;;23.60;83.30;;;;;;7378054;19;20019;-75
2023/08/16 03:06:18;;;;;;;5.68;2.13;;;23.60;83.20;;;;;;7378984;19;20003;-76
2023/08/16 03:08:47;;;;;;;;;;;23.50;83.10;;;;;;7379442;19;20092;-75
2023/08/16 03:11:18;;;;;;;10.38;1.85;;;23.50;83.30;;;;;;7378797;19;20220;-76
2023/08/16 03:13:47;;;;;;;4.68;2.30;;;23.50;83.40;;;;;;7378764;19;20107;-76
2023/08/16 03:16:15;;;;;;;5.03;1.83;;;23.50;83.70;;;;;;7397307;19;20074;-75
2023/08/16 03:18:44;;;;;;;4.65;1.75;;;23.50;83.70;;;;;;7378235;19;20078;-76
2023/08/16 03:21:13;;;;;;;10.63;2.08;;;23.50;83.60;;;;;;7378568;19;20291;-77
2023/08/16 03:23:44;;;;;;;5.18;1.92;;;23.60;83.30;;;;;;7378876;19;20002;-76
2023/08/16 03:26:12;;;;;;;;;;;23.60;82.80;;;;;;7379730;19;20002;-76
2023/08/16 03:28:41;;;;;;;3.72;1.63;;;23.60;82.70;;;;;;7403723;19;19970;-75
2023/08/16 03:31:10;;;;;;;5.32;2.15;;;23.60;82.20;;;;;;7377897;19;20023;-76
2023/08/16 03:33:39;;;;;;;5.55;1.98;;;23.60;82.30;;;;;;7377599;19;20015;-75
2023/08/16 03:36:07;;;;;;;4.40;2.00;;;23.60;82.40;;;;;;7377803;19;20003;-75
2023/08/16 03:38:36;;;;;;;8.68;1.98;;;23.60;82.50;;;;;;7377702;19;20056;-75
2023/08/16 03:41:07;;;;;;;4.68;1.90;;;23.60;82.50;;;;;;7377552;19;20398;-75
2023/08/16 03:43:37;;;;;;;;;;;23.60;82.80;;;;;;7399626;19;20370;-76
2023/08/16 03:46:05;;;;;;;9.70;2.10;;;23.60;83.10;;;;;;7377174;19;19907;-76
2023/08/16 03:48:34;;;;;;;7.13;2.20;;;23.60;83.00;;;;;;7377314;19;20003;-74
2023/08/16 03:51:03;;;;;;;6.82;2.00;;;23.60;83.00;;;;;;7377511;19;20227;-76
2023/08/16 03:53:32;;;;;;;8.23;2.10;;;23.60;83.60;;;;;;7377573;19;20003;-76
2023/08/16 03:56:01;;;;;;;3.47;1.77;;;23.50;83.00;;;;;;7376559;19;20011;-77
2023/08/16 03:58:32;;;;;;;4.13;1.80;;;23.50;82.70;;;;;;7399627;19;20375;-78
2023/08/16 04:01:01;;;;;;;;;;;23.50;82.40;;;;;;7377673;19;20397;-76
2023/08/16 04:03:29;;;;;;;8.07;2.20;;;23.50;82.70;;;;;;7376641;19;19935;-76
2023/08/16 04:05:58;;;;;;;3.75;1.90;;;23.50;83.10;;;;;;7376649;19;20066;-77
2023/08/16 04:08:27;;;;;;;3.90;2.03;;;23.40;83.30;;;;;;7377467;19;20002;-76
2023/08/16 04:10:55;;;;;;;5.88;2.20;;;23.40;83.80;;;;;;7376875;19;20007;-77
2023/08/16 04:13:24;;;;;;;4.40;1.75;;;23.40;83.60;;;;;;7398814;19;20075;-78
2023/08/16 04:15:55;;;;;;;5.13;1.60;;;23.40;83.90;;;;;;7374885;19;20019;-77
2023/08/16 04:18:23;;;;;;;;;;;23.30;83.90;;;;;;7377469;19;20110;-75
2023/08/16 04:20:52;;;;;;;10.65;2.33;;;23.40;84.20;;;;;;7377266;19;19911;-76
2023/08/16 04:23:21;;;;;;;9.88;2.00;;;23.30;84.10;;;;;;7378331;19;20029;-78
2023/08/16 04:25:50;;;;;;;5.35;2.10;;;23.30;84.10;;;;;;7378317;19;20027;-78
2023/08/16 04:28:19;;;;;;;10.02;2.30;;;23.10;83.90;;;;;;7404163;19;20017;-77
2023/08/16 04:30:48;;;;;;;3.03;2.20;;;23.10;84.00;;;;;;7387432;19;20003;-77
2023/08/16 04:33:19;;;;;;;8.93;2.45;;;23.10;84.70;;;;;;7389365;19;20002;-77
2023/08/16 04:35:47;;;;;;;;;;;23.10;84.60;;;;;;7393346;19;20784;-77
2023/08/16 04:38:19;;;;;;;11.05;2.08;;;23.10;85.00;;;;;;7392450;19;19914;-80
2023/08/16 04:40:51;;;;;;;9.30;2.95;;;23.00;84.80;;;;;;7390007;19;20011;-80
2023/08/16 04:43:21;;;;;;;6.28;2.20;;;22.90;84.80;;;;;;7411133;19;20090;-78
2023/08/16 04:45:49;;;;;;;12.45;2.15;;;23.00;85.20;;;;;;7384045;19;20058;-77
2023/08/16 04:48:21;;;;;;;5.13;2.10;;;23.00;85.30;;;;;;7383762;19;20291;-77
2023/08/16 04:50:54;;;;;;;9.70;2.00;;;22.90;85.20;;;;;;7385437;19;20376;-81
2023/08/16 04:53:23;;;;;;;4.88;2.00;;;22.90;85.50;;;;;;7388669;19;20232;-80
2023/08/16 04:55:53;;;;;;;9.70;2.10;;;22.90;85.80;;;;;;7390530;19;20011;-81
2023/08/16 04:58:22;;;;;;;3.97;2.17;;;22.80;85.50;;;;;;7410806;19;20024;-80
2023/08/16 05:00:51;;;;;;;7.88;2.03;;;22.80;85.70;;;;;;7390850;19;20724;-78
2023/08/16 05:03:22;;;;;;;13.63;2.25;;;22.80;85.70;;;;;;7389641;19;20014;-78
2023/08/16 05:05:57;;;;;;;;;;;22.80;86.20;;;;;;7387365;19;20006;-79
2023/08/16 05:08:25;;;;;;;6.10;2.13;;;22.80;86.10;;;;;;7386789;19;19918;-78
2023/08/16 05:10:54;;;;;;;11.07;2.63;;;22.80;86.00;;;;;;7388537;19;20028;-78
2023/08/16 05:13:23;;;;;;;5.53;2.20;;;22.80;85.80;;;;;;7410181;19;20257;-79
2023/08/16 05:15:52;;;;;;;5.18;2.45;;;22.90;85.90;;;;;;7386851;19;20026;-79
2023/08/16 05:18:23;;;;;;;7.25;2.60;;;22.90;86.10;;;;;;7389167;19;20010;-78
2023/08/16 05:20:52;;;;;;;;;;;22.90;86.30;;;;;;7390511;19;20386;-79
2023/08/16 05:23:21;;;;;;;9.77;2.58;;;22.90;86.70;;;;;;7388514;19;19907;-79
2023/08/16 05:25:51;;;;;;;3.40;2.25;;;22.90;86.70;;;;;;7385488;19;20465;-79
2023/08/16 05:28:19;;;;;;;4.57;2.30;;;22.90;86.90;;;;;;7409747;19;20030;-79
2023/08/16 05:30:48;;;;;;;7.85;2.50;;;22.90;86.80;;;;;;7387987;19;20014;-78
2023/08/16 05:33:17;;;;;;;10.40;2.35;;;22.90;86.70;;;;;;7387454;19;20019;-79
2023/08/16 05:35:48;;;;;;;7.22;2.45;;;22.90;86.70;;;;;;7385382;19;20014;-79
2023/08/16 05:38:21;;;;;;;;;;;22.80;86.60;;;;;;7387234;19;20011;-78
2023/08/16 05:40:50;;;;;;;4.60;1.88;;;22.90;86.40;;;;;;7389096;19;19914;-79
2023/08/16 05:43:19;;;;;;;11.90;2.30;;;22.90;85.90;;;;;;7410810;19;20010;-79
2023/08/16 05:45:48;;;;;;;5.50;2.10;;;22.90;85.90;;;;;;7387872;19;20014;-80
2023/08/16 05:48:16;;;;;;;5.15;1.95;;;22.90;86.40;;;;;;7386838;19;20019;-79
2023/08/16 05:50:48;;;;;;;15.48;2.63;;;23.00;86.60;;;;;;7386869;19;20002;-79
2023/08/16 05:53:16;;;;;;;;;;;23.00;86.60;;;;;;7388649;19;20316;-78
2023/08/16 05:55:45;;;;;;;8.77;2.00;;;23.00;86.20;;;;;;7386184;19;20215;-78
2023/08/16 05:58:13;;;;;;;15.02;2.70;;;23.00;85.80;;;;;;7407007;19;20027;-80
2023/08/16 06:00:45;;;;;;;11.05;2.20;;;23.00;85.40;;;;;;7388765;19;20023;-79
2023/08/16 06:03:14;;;;;;;8.40;2.40;;;23.00;85.60;;;;;;7389355;19;20003;-79
2023/08/16 06:05:43;;;;;;;9.07;2.40;;;23.00;85.10;;;;;;7388681;19;20011;-79
2023/08/16 06:08:16;;;;;;;6.53;2.53;;;23.00;85.20;;;;;;7388508;19;20002;-79
2023/08/16 06:10:44;;;;;;;8.35;2.67;;;23.10;85.30;;;;;;7388959;19;20030;-79
2023/08/16 06:13:13;;;;;;;8.13;2.30;;;23.10;85.00;;;;;;7411670;19;20013;-80
2023/08/16 06:15:42;;;;;;;4.65;2.15;;;23.10;85.00;;;;;;7390468;19;20286;-79
2023/08/16 06:18:10;;;;;;;6.97;2.35;;;23.20;84.80;;;;;;7391103;19;20361;-79
2023/08/16 06:20:39;;;;;;;7.07;2.15;;;23.20;84.50;;;;;;7391599;19;20026;-79
2023/08/16 06:23:09;;;;;;;6.32;2.40;;;23.20;84.40;;;;;;7390203;19;20020;-79
2023/08/16 06:25:40;;;;;;;5.90;2.40;;;23.20;84.20;;;;;;7410688;19;20011;-78
2023/08/16 06:28:09;;;;;;;7.00;2.63;;;23.20;84.30;;;;;;7392113;19;20007;-80
2023/08/16 06:30:37;;;;;;;7.75;2.53;;;23.20;84.30;;;;;;7393292;19;20010;-79
2023/08/16 06:33:07;;;;;;;13.50;2.75;;;23.40;84.70;;;;;;7394692;19;20007;-80
2023/08/16 06:35:35;;;;;;;8.00;2.63;;;23.40;84.10;;;;;;7391456;19;20031;-79
2023/08/16 06:38:06;;;;;;;9.27;2.65;;;23.50;84.20;;;;;;7391207;19;20049;-79
2023/08/16 06:40:34;;;;;;;8.50;2.55;;;23.60;83.90;;;;;;7409032;19;20208;-79
2023/08/16 06:43:06;;;;;;;7.75;2.40;;;23.70;83.80;;;;;;7386299;19;20297;-79
2023/08/16 06:45:35;;;;;;;7.57;2.70;;;23.70;82.80;;;;;;7386646;19;20916;-79
2023/08/16 06:48:03;;;;;;;11.32;2.85;;;23.80;82.70;;;;;;7386615;19;20281;-78
2023/08/16 06:50:32;;;;;;;8.10;2.55;;;23.80;82.80;;;;;;7385637;19;20029;-79
2023/08/16 06:53:01;;;;;;;9.38;2.60;;;23.90;82.70;;;;;;7384824;19;20805;-79
2023/08/16 06:55:32;;;;;;;16.05;3.17;;;24.00;82.70;;;;;;7405012;19;20030;-79
2023/08/16 06:58:05;;;;;;;26.85;3.08;;;24.00;82.50;;;;;;7385146;19;20011;-80
2023/08/16 07:00:37;;;;;;;5.72;2.88;;;24.10;82.80;;;;;;7384977;19;20290;-79
2023/08/16 07:03:07;;;;;;;11.52;3.17;;;24.00;82.10;;;;;;7385370;19;20010;-78
2023/08/16 07:05:36;;;;;;;11.43;3.45;;;23.90;82.40;;;;;;7383194;19;20026;-78
2023/08/16 07:08:05;;;;;;;10.70;2.92;;;24.00;82.70;;;;;;7382088;19;20014;-79
2023/08/16 07:10:34;;;;;;;10.70;2.80;;;24.00;82.60;;;;;;7402704;19;20007;-79
2023/08/16 07:13:02;;;;;;;15.50;3.30;;;24.10;83.00;;;;;;7384085;19;20021;-77
2023/08/16 07:15:31;;;;;;;6.07;2.65;;;24.10;82.10;;;;;;7383516;19;20011;-79
2023/08/16 07:18:03;;;;;;;11.98;3.03;;;24.00;82.20;;;;;;7385442;19;20014;-78
2023/08/16 07:20:31;;;;;;;;;;;23.90;82.20;;;;;;7385285;19;20326;-79
2023/08/16 07:23:01;;;;;;;6.07;2.90;;;23.80;82.70;;;;;;7384721;19;19929;-77
2023/08/16 07:25:30;;;;;;;9.63;2.70;;;23.80;83.10;;;;;;7404283;19;20003;-79
2023/08/16 07:27:59;;;;;;;6.47;2.30;;;23.90;83.30;;;;;;7383121;19;20006;-79
2023/08/16 07:30:28;;;;;;;7.35;2.90;;;23.90;83.40;;;;;;7382597;19;20097;-79
2023/08/16 07:32:56;;;;;;;6.80;2.70;;;24.00;83.50;;;;;;7384964;19;20409;-80
2023/08/16 07:35:28;;;;;;;14.70;3.15;;;24.00;83.20;;;;;;7384137;19;20006;-80
2023/08/16 07:37:57;;;;;;;8.15;3.00;;;24.00;83.40;;;;;;7383414;19;20011;-78
2023/08/16 07:40:26;;;;;;;8.70;2.80;;;24.00;83.60;;;;;;7402886;19;20007;-79
2023/08/16 07:42:54;;;;;;;14.43;3.20;;;24.00;83.50;;;;;;7382899;19;20015;-80
2023/08/16 07:45:23;;;;;;;10.02;3.03;;;24.00;83.10;;;;;;7383399;19;20058;-79
2023/08/16 07:47:52;;;;;;;7.22;3.47;;;23.90;83.00;;;;;;7385029;19;20026;-79
2023/08/16 07:50:20;;;;;;;9.45;3.72;;;23.80;83.50;;;;;;7383071;19;20003;-79
2023/08/16 07:52:52;;;;;;;11.80;3.70;;;23.80;83.40;;;;;;7382673;19;20024;-80
2023/08/16 07:55:20;;;;;;;14.18;3.72;;;23.80;83.30;;;;;;7406791;19;20024;-79
2023/08/16 07:57:49;;;;;;;17.25;3.47;;;23.90;83.60;;;;;;7384334;19;20003;-79
2023/08/16 08:00:18;;;;;;;18.40;3.80;;;24.00;83.60;;;;;;7385257;19;20042;-79
2023/08/16 08:02:48;;;;;;;9.48;3.60;;;24.10;83.10;;;;;;7385302;19;20010;-79
2023/08/16 08:05:17;;;;;;;8.05;2.88;;;24.20;83.00;;;;;;7389746;19;20246;-80
2023/08/16 08:07:46;;;;;;;9.77;3.22;;;24.30;83.30;;;;;;7392805;19;20066;-78
2023/08/16 08:10:17;;;;;;;8.70;3.20;;;24.30;83.50;;;;;;7414119;19;20074;-79
2023/08/16 08:12:47;;;;;;;10.35;3.40;;;24.30;83.00;;;;;;7390091;19;20003;-80
2023/08/16 08:15:16;;;;;;;9.50;3.13;;;24.30;82.90;;;;;;7389025;19;20010;-79
2023/08/16 08:17:45;;;;;;;8.68;3.28;;;24.20;83.20;;;;;;7388450;19;20007;-78
2023/08/16 08:20:15;;;;;;;11.80;2.83;;;24.30;83.60;;;;;;7391000;19;20087;-79
2023/08/16 08:22:43;;;;;;;9.30;2.83;;;24.30;83.30;;;;;;7388908;19;20007;-79
2023/08/16 08:25:12;;;;;;;15.88;3.50;;;24.40;83.30;;;;;;7409651;19;20079;-79
2023/08/16 08:27:44;;;;;;;15.45;2.83;;;24.40;83.30;;;;;;7391850;19;20019;-80
2023/08/16 08:30:15;;;;;;;9.93;2.80;;;24.60;84.40;;;;;;7392579;19;20024;-78
2023/08/16 08:32:44;;;;;;;8.82;2.88;;;24.60;83.20;;;;;;7397517;19;20007;-78
2023/08/16 08:35:13;;;;;;;10.52;2.97;;;24.60;83.00;;;;;;7397368;19;20030;-79
2023/08/16 08:37:41;;;;;;;11.98;3.22;;;24.70;82.50;;;;;;7408357;19;20002;-79
2023/08/16 08:40:10;;;;;;;9.50;3.30;;;24.80;82.60;;;;;;7412114;19;20015;-79
2023/08/16 08:42:44;;;;;;;9.73;2.83;;;24.70;82.50;;;;;;7390044;19;20010;-79
2023/08/16 08:45:17;;;;;;;17.67;3.17;;;24.70;82.60;;;;;;7388740;19;20016;-80
2023/08/16 08:47:47;;;;;;;15.55;4.20;;;24.80;82.90;;;;;;7390538;19;20384;-80
2023/08/16 08:50:16;;;;;;;13.63;3.78;;;24.90;82.80;;;;;;7392057;19;20010;-79
2023/08/16 08:52:51;;;;;;;10.13;2.97;;;25.00;82.60;;;;;;7386627;19;20006;-80
2023/08/16 08:55:20;;;;;;;9.60;2.97;;;25.00;82.60;;;;;;7407819;19;20027;-79
2023/08/16 08:57:53;;;;;;;7.38;2.80;;;25.10;82.50;;;;;;7385866;19;20006;-78
2023/08/16 09:00:23;;;;;;;9.10;3.10;;;25.10;82.00;;;;;;7387975;19;20067;-80
2023/08/16 09:02:52;;;;;;;8.10;2.83;;;25.20;82.40;;;;;;7388922;19;20224;-80
2023/08/16 09:05:25;;;;;;;13.93;3.25;;;25.20;83.30;;;;;;7390171;19;20027;-79
2023/08/16 09:07:54;;;;;;;8.85;2.72;;;25.30;82.50;;;;;;7387956;19;20014;-79
2023/08/16 09:10:24;;;;;;;14.98;3.30;;;25.40;82.70;;;;;;7408226;19;20007;-79
2023/08/16 09:12:56;;;;;;;8.98;3.70;;;25.40;81.50;;;;;;7388381;19;20011;-79
2023/08/16 09:15:26;;;;;;;13.75;3.65;;;25.50;81.30;;;;;;7388472;19;20027;-80
2023/08/16 09:17:55;;;;;;;11.85;2.92;;;25.50;80.60;;;;;;7388361;19;20082;-79
2023/08/16 09:20:26;;;;;;;8.07;2.80;;;25.50;80.70;;;;;;7387479;19;20006;-78
2023/08/16 09:22:54;;;;;;;6.32;2.70;;;25.60;81.40;;;;;;7386516;19;20010;-79
2023/08/16 09:25:23;;;;;;;13.23;3.00;;;25.60;81.10;;;;;;7412050;19;20014;-79
2023/08/16 09:27:56;;;;;;;7.25;3.08;;;25.60;81.10;;;;;;7387801;19;20003;-78
2023/08/16 09:30:30;;;;;;;13.00;2.75;;;25.70;80.80;;;;;;7388362;19;20066;-79
2023/08/16 09:32:59;;;;;;;13.55;2.80;;;25.70;81.10;;;;;;7387449;19;20007;-79
2023/08/16 09:35:32;;;;;;;9.00;2.88;;;25.70;81.20;;;;;;7388577;19;20252;-79
2023/08/16 09:38:03;;;;;;;12.40;3.35;;;25.80;81.30;;;;;;7385934;19;20011;-81
2023/08/16 09:40:32;;;;;;;6.82;3.20;;;25.80;81.00;;;;;;7407137;19;20394;-78
2023/08/16 09:43:03;;;;;;;11.10;3.03;;;25.90;81.10;;;;;;7387067;19;20011;-79
2023/08/16 09:45:36;;;;;;;13.90;2.97;;;25.90;80.60;;;;;;7386407;19;20033;-78
2023/08/16 09:48:06;;;;;;;11.45;3.00;;;25.90;80.90;;;;;;7388698;19;20034;-79
2023/08/16 09:50:36;;;;;;;8.93;2.50;;;26.00;80.60;;;;;;7389286;19;20006;-78
2023/08/16 09:53:06;;;;;;;9.32;3.13;;;25.90;80.80;;;;;;7387304;19;20018;-79
2023/08/16 09:55:39;;;;;;;4.35;2.53;;;26.00;80.60;;;;;;7408624;19;20035;-79
2023/08/16 09:58:12;;;;;;;15.82;2.97;;;26.00;81.30;;;;;;7385125;19;20007;-78
2023/08/16 10:00:41;;;;;;;8.80;3.00;;;26.10;81.20;;;;;;7387214;19;20262;-79
2023/08/16 10:03:11;;;;;;;11.98;3.25;;;26.00;80.60;;;;;;7386236;19;20026;-78
2023/08/16 10:05:41;;;;;;;13.35;3.05;;;26.00;78.40;;;;;;7388903;19;20058;-79
2023/08/16 10:08:11;;;;;;;12.77;3.53;;;26.10;79.70;;;;;;7384587;19;20011;-79
2023/08/16 10:10:41;;;;;;;19.05;3.70;;;26.10;79.90;;;;;;7406152;19;20047;-79
2023/08/16 10:13:14;;;;;;;10.88;3.70;;;26.10;80.20;;;;;;7387452;19;20010;-78
2023/08/16 10:15:45;;;;;;;15.93;4.15;;;26.10;79.70;;;;;;7388844;19;20007;-79
2023/08/16 10:18:14;;;;;;;;;;;26.10;79.40;;;;;;7391645;19;20246;-80
2023/08/16 10:20:47;;;;;;;5.93;3.38;;;26.10;80.50;;;;;;7387409;19;19907;-79
2023/08/16 10:23:21;;;;;;;8.27;3.50;;;26.20;79.40;;;;;;7387680;19;20007;-80
2023/08/16 10:25:52;;;;;;;17.77;3.80;;;26.30;79.30;;;;;;7385032;19;20026;-78
2023/08/16 10:28:26;;;;;;;7.18;3.15;;;26.40;78.60;;;;;;7412158;19;20015;-79
2023/08/16 10:30:58;;;;;;;12.15;2.80;;;26.40;78.80;;;;;;7390036;19;20002;-80
2023/08/16 10:33:33;;;;;;;9.00;3.35;;;26.40;78.80;;;;;;7392046;19;20055;-80
2023/08/16 10:36:02;;;;;;;7.90;3.25;;;26.50;79.10;;;;;;7388701;19;20011;-79
2023/08/16 10:38:37;;;;;;;11.90;3.63;;;26.60;78.10;;;;;;7385745;19;20058;-79
2023/08/16 10:41:12;;;;;;;8.02;3.05;;;26.70;78.30;;;;;;7387235;19;20257;-79
2023/08/16 10:43:48;;;;;;;8.88;3.03;;;26.70;78.50;;;;;;7407580;19;19999;-79
2023/08/16 10:46:29;;;;;;;10.18;3.30;;;26.80;77.90;;;;;;7387199;19;20031;-79
2023/08/16 10:48:59;;;;;;;;;;;26.80;77.50;;;;;;7386332;19;20263;-79
2023/08/16 10:51:28;;;;;;;8.13;3.28;;;26.80;77.70;;;;;;7386349;19;21163;-79
2023/08/16 10:53:58;;;;;;;10.50;3.10;;;26.90;77.50;;;;;;7387554;19;20010;-80
2023/08/16 10:56:27;;;;;;;6.75;3.17;;;26.90;77.60;;;;;;7386351;19;20027;-80
2023/08/16 10:58:58;;;;;;;13.45;3.10;;;27.00;77.60;;;;;;7386325;19;20018;-80
2023/08/16 11:01:34;;;;;;;22.67;3.40;;;27.10;77.90;;;;;;7408470;19;20011;-80
2023/08/16 11:04:04;;;;;;;12.63;3.05;;;27.10;77.80;;;;;;7385181;19;20014;-80
2023/08/16 11:06:33;;;;;;;7.45;2.85;;;27.20;77.00;;;;;;7385819;19;20419;-80
2023/08/16 11:09:03;;;;;;;5.95;2.80;;;27.20;77.60;;;;;;7386616;19;20022;-79
2023/08/16 11:11:32;;;;;;;3.85;2.33;;;27.30;76.80;;;;;;7385451;19;20050;-80
2023/08/16 11:14:04;;;;;;;9.38;2.90;;;27.40;76.70;;;;;;7387325;19;20014;-80
2023/08/16 11:16:33;;;;;;;6.72;2.67;;;27.40;76.30;;;;;;7410043;19;20011;-78
2023/08/16 11:19:04;;;;;;;6.05;2.50;;;27.50;76.50;;;;;;7388149;19;20078;-80
2023/08/16 11:21:35;;;;;;;7.45;2.67;;;27.50;76.40;;;;;;7386543;19;20015;-79
2023/08/16 11:24:05;;;;;;;6.18;2.78;;;27.60;75.00;;;;;;7384790;19;20030;-79
2023/08/16 11:26:40;;;;;;;3.05;2.00;;;27.50;75.10;;;;;;7386228;19;20007;-79
2023/08/16 11:29:12;;;;;;;4.15;2.35;;;27.60;75.10;;;;;;7382043;19;20006;-80
2023/08/16 11:31:41;;;;;;;5.07;2.10;;;27.60;74.70;;;;;;7405579;19;20031;-79
2023/08/16 11:34:13;;;;;;;6.95;2.17;;;27.70;73.90;;;;;;7384461;19;20011;-79
2023/08/16 11:36:44;;;;;;;3.30;2.28;;;27.70;73.60;;;;;;7388272;19;20059;-79
2023/08/16 11:39:12;;;;;;;;;;;27.70;74.70;;;;;;7393558;19;20003;-80
2023/08/16 11:41:41;;;;;;;4.85;2.33;;;27.70;75.10;;;;;;7394705;19;19929;-79
2023/08/16 11:44:14;;;;;;;3.22;1.80;;;27.70;74.60;;;;;;7396485;19;20011;-79
2023/08/16 11:46:44;;;;;;;4.32;1.80;;;27.80;73.80;;;;;;7399605;19;20006;-80
2023/08/16 11:49:14;;;;;;;3.80;1.90;;;27.80;73.30;;;;;;7412627;19;20022;-80
2023/08/16 11:51:45;;;;;;;4.00;2.13;;;27.90;73.40;;;;;;7393012;19;20010;-81
2023/08/16 11:54:22;;;;;;;4.55;2.00;;;27.90;73.80;;;;;;7392768;19;19998;-79
2023/08/16 11:56:53;;;;;;;4.53;1.95;;;28.00;73.60;;;;;;7391519;19;20003;-79
2023/08/16 11:59:32;;;;;;;2.38;1.55;;;28.10;73.30;;;;;;7393025;19;20503;-79
2023/08/16 12:02:09;;;;;;;3.13;1.80;;;28.10;72.70;;;;;;7388735;19;20019;-80
2023/08/16 12:04:42;;;;;;;4.55;2.40;;;28.10;72.80;;;;;;7410168;19;20014;-80
2023/08/16 12:07:12;;;;;;;3.15;1.77;;;28.20;72.50;;;;;;7392558;19;20410;-79
2023/08/16 12:09:42;;;;;;;6.22;2.40;;;28.30;72.20;;;;;;7391365;19;19999;-80
2023/08/16 12:12:12;;;;;;;6.28;2.28;;;28.30;72.20;;;;;;7393663;19;19999;-80
2023/08/16 12:14:44;;;;;;;6.00;2.25;;;28.30;71.90;;;;;;7391379;19;20031;-80
2023/08/16 12:17:12;;;;;;;6.20;2.03;;;28.30;72.00;;;;;;7391127;19;20010;-80
2023/08/16 12:19:43;;;;;;;4.47;2.10;;;28.20;71.30;;;;;;7412901;19;20010;-81
2023/08/16 12:22:11;;;;;;;4.53;2.40;;;28.20;71.60;;;;;;7394530;19;19999;-80
2023/08/16 12:24:40;;;;;;;3.97;2.30;;;28.30;71.40;;;;;;7395282;19;20007;-80
2023/08/16 12:27:09;;;;;;;3.00;1.92;;;28.30;71.60;;;;;;7407368;19;20396;-80
2023/08/16 12:29:41;;;;;;;5.32;2.30;;;28.40;72.50;;;;;;7408708;19;20030;-80
2023/08/16 12:32:12;;;;;;;2.47;1.80;;;28.40;71.60;;;;;;7408591;19;20015;-80
2023/08/16 12:34:41;;;;;;;3.80;2.22;;;28.50;71.50;;;;;;7431638;19;20035;-80
2023/08/16 12:37:10;;;;;;;2.17;1.80;;;28.50;71.70;;;;;;7399926;19;20010;-80
2023/08/16 12:39:39;;;;;;;3.65;2.13;;;28.60;71.90;;;;;;7392083;19;20006;-80
2023/08/16 12:42:08;;;;;;;4.25;2.10;;;28.70;71.30;;;;;;7391538;19;20307;-79
2023/08/16 12:44:36;;;;;;;3.40;2.00;;;28.80;70.40;;;;;;7391286;19;20302;-80
2023/08/16 12:47:05;;;;;;;3.65;1.95;;;28.90;70.20;;;;;;7391585;19;20011;-81
2023/08/16 12:49:37;;;;;;;3.95;1.90;;;28.90;70.50;;;;;;7409378;19;20007;-79
2023/08/16 12:52:06;;;;;;;2.80;1.70;;;29.00;70.10;;;;;;7389168;19;20346;-80
2023/08/16 12:54:35;;;;;;;4.78;1.90;;;29.00;69.70;;;;;;7389660;19;20017;-80
2023/08/16 12:57:04;;;;;;;2.45;1.80;;;29.10;68.90;;;;;;7390637;19;20018;-79
2023/08/16 12:59:33;;;;;;;3.97;1.80;;;29.10;68.70;;;;;;7389312;19;20007;-79
2023/08/16 13:02:02;;;;;;;4.75;1.90;;;29.10;68.50;;;;;;7390532;19;20095;-80
2023/08/16 13:04:31;;;;;;;4.90;1.98;;;29.20;68.10;;;;;;7408946;19;20031;-79
2023/08/16 13:07:03;;;;;;;4.30;2.10;;;29.20;68.20;;;;;;7389360;19;20011;-79